createdAt,value
2019-06-01T00:00:10.834Z,99561.67
2019-06-01T00:02:33.182Z,99663.31
2019-06-01T00:05:11.868Z,99662.58
2019-06-01T00:07:51.577Z,99662.94
2019-06-01T00:10:39.613Z,99320.29
2019-06-01T00:13:11.933Z,99660.97
2019-06-01T00:15:46.145Z,99657.62
2019-06-01T00:18:19.871Z,99653.09
2019-06-01T00:20:52.752Z,99653.86
2019-06-01T00:23:28.815Z,99652.70
2019-06-01T00:26:10.303Z,99658.59
2019-06-01T00:28:43.731Z,99661.08
2019-06-01T00:31:15.624Z,99663.69
2019-06-01T00:33:49.655Z,99664.61
2019-06-01T00:36:23.505Z,99661.77
2019-06-01T00:38:56.736Z,99660.75
2019-06-01T00:41:30.410Z,99664.80
2019-06-01T00:44:02.948Z,99660.20
2019-06-01T00:46:34.901Z,99658.87
2019-06-01T00:49:08.189Z,99663.92
2019-06-01T00:51:45.044Z,99658.42
2019-06-01T00:54:20.671Z,99655.75
2019-06-01T00:56:54.703Z,99653.05
2019-06-01T00:59:27.325Z,99650.47
2019-06-01T01:02:01.882Z,99649.20
2019-06-01T01:04:35.684Z,99653.47
2019-06-01T01:07:11.937Z,99651.12
2019-06-01T01:09:47.215Z,99649.42
2019-06-01T01:12:20.749Z,99644.83
2019-06-01T01:14:53.354Z,99651.30
2019-06-01T01:17:28.862Z,99650.61
2019-06-01T01:20:00.882Z,99649.19
2019-06-01T01:22:36.633Z,99648.41
2019-06-01T01:25:10.178Z,99653.18
2019-06-01T01:27:52.971Z,99648.81
2019-06-01T01:30:35.351Z,99649.01
2019-06-01T01:33:06.912Z,99625.87
2019-06-01T01:35:40.009Z,99642.11
2019-06-01T01:38:25.294Z,99643.91
2019-06-01T01:41:17.459Z,99641.15
2019-06-01T01:43:52.757Z,99633.38
2019-06-01T01:46:27.350Z,99640.37
2019-06-01T01:49:02.713Z,99634.49
2019-06-01T01:51:36.619Z,99633.53
2019-06-01T01:54:10.022Z,99621.45
2019-06-01T01:56:48.016Z,99627.14
2019-06-01T01:59:20.143Z,99622.61
2019-06-01T02:01:53.157Z,99619.75
2019-06-01T02:04:25.202Z,99615.30
2019-06-01T02:06:56.624Z,99614.47
2019-06-01T02:09:29.867Z,99614.34
2019-06-01T02:12:02.478Z,99614.47
2019-06-01T02:14:37.856Z,99613.16
2019-06-01T02:17:12.436Z,99622.89
2019-06-01T02:19:45.330Z,99617.38
2019-06-01T02:22:19.421Z,99615.77
2019-06-01T02:24:54.132Z,99614.34
2019-06-01T02:27:27.340Z,99621.69
2019-06-01T02:30:02.610Z,99618.02
2019-06-01T02:32:37.118Z,99622.34
2019-06-01T02:35:09.497Z,99616.64
2019-06-01T02:37:50.795Z,99605.50
2019-06-01T02:40:48.135Z,99612.74
2019-06-01T02:43:20.481Z,99607.10
2019-06-01T02:45:56.186Z,99612.06
2019-06-01T02:48:29.381Z,99610.31
2019-06-01T02:51:01.872Z,99608.74
2019-06-01T02:53:34.318Z,99609.14
2019-06-01T02:56:08.757Z,99603.67
2019-06-01T02:58:44.290Z,99604.66
2019-06-01T03:01:35.041Z,99571.34
2019-06-01T03:04:09.950Z,99604.55
2019-06-01T03:06:45.209Z,99602.59
2019-06-01T03:09:22.375Z,99600.48
2019-06-01T03:11:58.899Z,99603.91
2019-06-01T03:14:34.116Z,99607.59
2019-06-01T03:17:09.848Z,99612.41
2019-06-01T03:19:42.829Z,99609.91
2019-06-01T03:22:16.635Z,99614.70
2019-06-01T03:24:52.198Z,99612.58
2019-06-01T03:27:25.947Z,99619.01
2019-06-01T03:30:00.351Z,99620.34
2019-06-01T03:32:36.879Z,99616.22
2019-06-01T03:35:07.391Z,99624.93
2019-06-01T03:37:40.644Z,99625.72
2019-06-01T03:40:32.911Z,99616.34
2019-06-01T03:43:04.861Z,99627.25
2019-06-01T03:45:41.081Z,99630.75
2019-06-01T03:48:14.740Z,99631.71
2019-06-01T03:50:50.312Z,99632.67
2019-06-01T03:53:23.785Z,99640.67
2019-06-01T03:55:55.713Z,99632.12
2019-06-01T03:58:30.710Z,99638.88
2019-06-01T04:01:09.169Z,99641.95
2019-06-01T04:03:41.537Z,99642.64
2019-06-01T04:06:13.670Z,99635.59
2019-06-01T04:08:45.676Z,99646.79
2019-06-01T04:11:21.944Z,99641.80
2019-06-01T04:13:57.435Z,99636.27
2019-06-01T04:16:31.409Z,99636.83
2019-06-01T04:19:03.933Z,99641.69
2019-06-01T04:21:38.212Z,99646.17
2019-06-01T04:24:12.664Z,99640.09
2019-06-01T04:26:46.894Z,99641.83
2019-06-01T04:29:21.641Z,99635.84
2019-06-01T04:31:56.232Z,99642.50
2019-06-01T04:34:29.616Z,99635.52
2019-06-01T04:37:07.007Z,99629.42
2019-06-01T04:39:38.922Z,99635.30
2019-06-01T04:42:13.830Z,99634.70
2019-06-01T04:44:48.681Z,99634.81
2019-06-01T04:47:23.832Z,99635.59
2019-06-01T04:49:57.473Z,99639.52
2019-06-01T04:52:28.925Z,99637.82
2019-06-01T04:55:07.276Z,99634.08
2019-06-01T04:57:51.792Z,99638.20
2019-06-01T05:00:52.659Z,99637.56
2019-06-01T05:03:25.967Z,99631.78
2019-06-01T05:05:58.547Z,99632.12
2019-06-01T05:08:31.333Z,99632.48
2019-06-01T05:11:13.709Z,99636.57
2019-06-01T05:13:45.693Z,99634.71
2019-06-01T05:16:22.269Z,99641.36
2019-06-01T05:18:53.978Z,99639.58
2019-06-01T05:21:29.815Z,99634.55
2019-06-01T05:24:01.129Z,99634.63
2019-06-01T05:26:38.593Z,99629.29
2019-06-01T05:29:11.655Z,99628.30
2019-06-01T05:31:43.092Z,99625.01
2019-06-01T05:34:18.352Z,99630.43
2019-06-01T05:36:51.976Z,99624.38
2019-06-01T05:39:25.472Z,99626.16
2019-06-01T05:41:57.231Z,99628.95
2019-06-01T05:44:30.413Z,99632.02
2019-06-01T05:47:02.174Z,99630.86
2019-06-01T05:49:37.896Z,99630.45
2019-06-01T05:52:10.406Z,99631.27
2019-06-01T05:54:43.406Z,99637.38
2019-06-01T05:57:19.451Z,99638.45
2019-06-01T05:59:53.508Z,99635.14
2019-06-01T06:02:28.294Z,99634.48
2019-06-01T06:05:02.000Z,99630.59
2019-06-01T06:07:36.497Z,99630.17
2019-06-01T06:10:11.936Z,99634.80
2019-06-01T06:12:55.953Z,99639.83
2019-06-01T06:15:29.573Z,99637.84
2019-06-01T06:18:04.258Z,99647.19
2019-06-01T06:20:37.613Z,99643.22
2019-06-01T06:23:16.342Z,99642.72
2019-06-01T06:26:04.065Z,99647.19
2019-06-01T06:28:37.819Z,99649.33
2019-06-01T06:31:13.303Z,99653.95
2019-06-01T06:33:56.715Z,99650.66
2019-06-01T06:36:23.907Z,99651.02
2019-06-01T06:38:59.139Z,99645.89
2019-06-01T06:41:30.496Z,99654.45
2019-06-01T06:44:04.510Z,99659.98
2019-06-01T06:46:37.601Z,99658.66
2019-06-01T06:49:11.427Z,99652.33
2019-06-01T06:51:44.723Z,99656.90
2019-06-01T06:54:21.759Z,99658.48
2019-06-01T06:56:55.454Z,99656.56
2019-06-01T06:59:28.869Z,99653.75
2019-06-01T07:02:06.922Z,99653.14
2019-06-01T07:04:39.694Z,99656.97
2019-06-01T07:07:11.703Z,99656.05
2019-06-01T07:09:45.782Z,99653.47
2019-06-01T07:12:19.191Z,99654.98
2019-06-01T07:14:54.566Z,99664.77
2019-06-01T07:17:28.900Z,99664.75
2019-06-01T07:20:01.718Z,99660.67
2019-06-01T07:22:35.536Z,99665.06
2019-06-01T07:25:12.696Z,99658.14
2019-06-01T07:28:00.731Z,99664.22
2019-06-01T07:30:58.636Z,99663.38
2019-06-01T07:33:32.758Z,99661.06
2019-06-01T07:36:07.753Z,99661.91
2019-06-01T07:38:43.301Z,99658.48
2019-06-01T07:41:16.696Z,99660.07
2019-06-01T07:43:48.852Z,99662.52
2019-06-01T07:46:22.861Z,99661.98
2019-06-01T07:48:56.438Z,99655.67
2019-06-01T07:51:29.624Z,99656.87
2019-06-01T07:54:02.392Z,99661.76
2019-06-01T07:56:33.840Z,99659.43
2019-06-01T07:59:08.166Z,99657.90
2019-06-01T08:01:42.352Z,99664.44
2019-06-01T08:04:14.180Z,99658.34
2019-06-01T08:06:48.521Z,99659.21
2019-06-01T08:09:22.061Z,99659.19
2019-06-01T08:11:56.581Z,99662.23
2019-06-01T08:14:28.844Z,99668.38
2019-06-01T08:17:02.005Z,99660.97
2019-06-01T08:19:35.712Z,99656.39
2019-06-01T08:22:08.879Z,99664.66
2019-06-01T08:24:40.388Z,99668.69
2019-06-01T08:27:12.981Z,99660.34
2019-06-01T08:29:46.939Z,99670.03
2019-06-01T08:32:19.902Z,99670.50
2019-06-01T08:35:08.061Z,99662.36
2019-06-01T08:37:31.678Z,99666.89
2019-06-01T08:40:05.376Z,99662.22
2019-06-01T08:42:39.020Z,99660.67
2019-06-01T08:45:37.494Z,99656.59
2019-06-01T08:48:14.261Z,99649.61
2019-06-01T08:50:56.357Z,99646.23
2019-06-01T08:53:30.073Z,99645.72
2019-06-01T08:56:03.967Z,99646.25
2019-06-01T08:58:37.922Z,99640.27
2019-06-01T09:01:11.141Z,99635.55
2019-06-01T09:03:46.785Z,99630.94
2019-06-01T09:06:21.148Z,99642.46
2019-06-01T09:08:56.799Z,99629.92
2019-06-01T09:11:31.146Z,99635.42
2019-06-01T09:14:06.900Z,99637.28
2019-06-01T09:16:42.060Z,99634.87
2019-06-01T09:19:17.174Z,99637.11
2019-06-01T09:21:49.387Z,99634.40
2019-06-01T09:24:22.111Z,99638.91
2019-06-01T09:26:56.743Z,99630.66
2019-06-01T09:29:30.136Z,99627.37
2019-06-01T09:32:10.920Z,99628.95
2019-06-01T09:34:43.685Z,99627.87
2019-06-01T09:37:38.415Z,99617.88
2019-06-01T09:40:11.371Z,99630.20
2019-06-01T09:42:44.527Z,99633.25
2019-06-01T09:45:52.821Z,99631.53
2019-06-01T09:48:27.027Z,99620.81
2019-06-01T09:51:12.040Z,99624.66
2019-06-01T09:53:43.372Z,99617.23
2019-06-01T09:56:16.414Z,99619.20
2019-06-01T09:58:52.042Z,99611.28
2019-06-01T10:01:28.096Z,99609.91
2019-06-01T10:04:01.981Z,99611.56
2019-06-01T10:09:09.299Z,99599.94
2019-06-01T10:11:45.024Z,99607.42
2019-06-01T10:14:17.676Z,99604.59
2019-06-01T10:16:50.635Z,99608.85
2019-06-01T10:19:24.340Z,99600.25
2019-06-01T10:22:01.195Z,99601.91
2019-06-01T10:24:37.227Z,99597.49
2019-06-01T10:27:10.426Z,99590.12
2019-06-01T10:29:43.064Z,99597.05
2019-06-01T10:32:18.980Z,99595.86
2019-06-01T10:34:52.560Z,99584.56
2019-06-01T10:37:27.272Z,99570.66
2019-06-01T10:39:59.469Z,99573.63
2019-06-01T10:42:32.749Z,99574.81
2019-06-01T10:45:04.739Z,99568.27
2019-06-01T10:47:38.604Z,99562.73
2019-06-01T10:50:12.722Z,99560.73
2019-06-01T10:52:56.634Z,99555.77
2019-06-01T10:55:40.905Z,99549.70
2019-06-01T10:58:13.719Z,99554.78
2019-06-01T11:00:55.128Z,99550.81
2019-06-01T11:03:31.074Z,99552.90
2019-06-01T11:06:03.743Z,99543.87
2019-06-01T11:08:37.056Z,99534.55
2019-06-01T11:11:10.685Z,99538.33
2019-06-01T11:13:43.293Z,99530.03
2019-06-01T11:16:19.502Z,99543.57
2019-06-01T11:18:51.720Z,99540.42
2019-06-01T11:21:24.719Z,99532.12
2019-06-01T11:23:58.833Z,99531.61
2019-06-01T11:26:33.368Z,99527.30
2019-06-01T11:29:05.932Z,99522.60
2019-06-01T11:31:40.095Z,99528.99
2019-06-01T11:34:14.610Z,99521.72
2019-06-01T11:37:04.410Z,99514.44
2019-06-01T11:39:24.456Z,99510.89
2019-06-01T11:41:56.965Z,99508.90
2019-06-01T11:44:28.767Z,99508.37
2019-06-01T11:47:01.980Z,99505.96
2019-06-01T11:49:34.685Z,99501.73
2019-06-01T11:52:09.906Z,99498.28
2019-06-01T11:54:47.269Z,99494.77
2019-06-01T11:57:21.609Z,99490.81
2019-06-01T11:59:53.991Z,99493.13
2019-06-01T12:02:28.536Z,99494.83
2019-06-01T12:05:00.440Z,99491.06
2019-06-01T12:07:33.018Z,99484.42
2019-06-01T12:10:08.102Z,99480.73
2019-06-01T12:12:40.294Z,99482.13
2019-06-01T12:15:13.545Z,99471.20
2019-06-01T12:17:58.292Z,99469.30
2019-06-01T12:20:37.091Z,99466.92
2019-06-01T12:23:09.968Z,99364.48
2019-06-01T12:25:44.239Z,99476.80
2019-06-01T12:28:18.830Z,99464.78
2019-06-01T12:30:52.167Z,99454.96
2019-06-01T12:33:25.250Z,99464.80
2019-06-01T12:35:57.026Z,99454.58
2019-06-01T12:38:33.972Z,99445.77
2019-06-01T12:41:10.562Z,99451.56
2019-06-01T12:43:45.641Z,99442.47
2019-06-01T12:46:17.032Z,99442.00
2019-06-01T12:48:50.277Z,99449.34
2019-06-01T12:51:23.269Z,99459.06
2019-06-01T12:53:59.290Z,99450.73
2019-06-01T12:56:33.204Z,99438.03
2019-06-01T12:59:06.776Z,99429.86
2019-06-01T13:01:38.286Z,99430.11
2019-06-01T13:04:12.399Z,99432.20
2019-06-01T13:06:51.082Z,99431.95
2019-06-01T13:09:22.197Z,99419.74
2019-06-01T13:11:54.431Z,99420.42
2019-06-01T13:14:30.104Z,99426.92
2019-06-01T13:17:07.595Z,99414.35
2019-06-01T13:19:38.925Z,99396.49
2019-06-01T13:22:17.597Z,99409.37
2019-06-01T13:24:52.733Z,99393.72
2019-06-01T13:27:28.699Z,99395.66
2019-06-01T13:30:02.464Z,99391.41
2019-06-01T13:32:38.213Z,99389.34
2019-06-01T13:35:10.615Z,99388.94
2019-06-01T13:37:44.541Z,99379.64
2019-06-01T13:40:18.556Z,99382.05
2019-06-01T13:43:05.814Z,99387.57
2019-06-01T13:45:41.290Z,99378.72
2019-06-01T13:48:14.376Z,99372.87
2019-06-01T13:50:47.833Z,99370.21
2019-06-01T13:53:20.950Z,99376.58
2019-06-01T13:55:57.440Z,99369.02
2019-06-01T13:58:29.619Z,99371.71
2019-06-01T14:01:01.550Z,99358.41
2019-06-01T14:03:34.529Z,99352.06
2019-06-01T14:06:11.652Z,99360.05
2019-06-01T14:08:46.839Z,99357.58
2019-06-01T14:11:20.563Z,99353.91
2019-06-01T14:13:54.218Z,99355.98
2019-06-01T14:16:31.140Z,99340.94
2019-06-01T14:19:06.938Z,99344.56
2019-06-01T14:21:40.624Z,99359.53
2019-06-01T14:24:16.436Z,99351.76
2019-06-01T14:26:52.313Z,99345.95
2019-06-01T14:29:29.536Z,99353.63
2019-06-01T14:32:05.237Z,99346.52
2019-06-01T14:34:37.885Z,99348.53
2019-06-01T14:37:18.072Z,99340.22
2019-06-01T14:39:54.957Z,99337.27
2019-06-01T14:42:29.939Z,99336.32
2019-06-01T14:45:04.928Z,99336.80
2019-06-01T14:47:40.058Z,99336.78
2019-06-01T14:50:27.606Z,99329.45
2019-06-01T14:53:00.864Z,99316.22
2019-06-01T14:55:43.376Z,99319.45
2019-06-01T14:58:15.964Z,99332.56
2019-06-01T15:00:52.642Z,99320.31
2019-06-01T15:03:25.670Z,99316.58
2019-06-01T15:05:58.628Z,99318.62
2019-06-01T15:08:36.461Z,99313.47
2019-06-01T15:11:09.639Z,99312.89
2019-06-01T15:13:43.006Z,99309.61
2019-06-01T15:16:15.993Z,99319.08
2019-06-01T15:18:51.540Z,99313.30
2019-06-01T15:21:24.390Z,99306.05
2019-06-01T15:23:56.717Z,99307.05
2019-06-01T15:26:32.560Z,99305.63
2019-06-01T15:29:06.222Z,99301.27
2019-06-01T15:31:39.814Z,99299.06
2019-06-01T15:34:12.961Z,99307.61
2019-06-01T15:36:53.885Z,99302.95
2019-06-01T15:39:40.342Z,99301.70
2019-06-01T15:42:14.001Z,99289.07
2019-06-01T15:44:47.010Z,99300.36
2019-06-01T15:47:19.994Z,99307.17
2019-06-01T15:49:53.595Z,99311.52
2019-06-01T15:52:26.293Z,99304.62
2019-06-01T15:55:00.434Z,99305.11
2019-06-01T15:57:35.214Z,99302.97
2019-06-01T16:00:07.736Z,99302.22
2019-06-01T16:02:40.941Z,99293.79
2019-06-01T16:05:12.753Z,99290.59
2019-06-01T16:07:55.167Z,99291.13
2019-06-01T16:10:28.992Z,99287.70
2019-06-01T16:13:04.598Z,99294.48
2019-06-01T16:15:46.030Z,99291.19
2019-06-01T16:18:20.023Z,99292.55
2019-06-01T16:20:58.034Z,99289.92
2019-06-01T16:23:30.174Z,99285.97
2019-06-01T16:26:15.745Z,99278.73
2019-06-01T16:28:40.173Z,99281.36
2019-06-01T16:31:16.094Z,99284.57
2019-06-01T16:33:50.383Z,99281.30
2019-06-01T16:36:25.007Z,99277.07
2019-06-01T16:39:03.620Z,99272.41
2019-06-01T16:41:34.368Z,99272.53
2019-06-01T16:44:05.909Z,99274.55
2019-06-01T16:46:40.142Z,99274.41
2019-06-01T16:49:12.555Z,99277.98
2019-06-01T16:51:59.296Z,99277.58
2019-06-01T16:54:35.123Z,99273.95
2019-06-01T16:57:07.673Z,99279.85
2019-06-01T16:59:39.348Z,99279.03
2019-06-01T17:02:15.049Z,99272.42
2019-06-01T17:04:47.428Z,99272.89
2019-06-01T17:07:21.288Z,99280.20
2019-06-01T17:09:52.555Z,99278.09
2019-06-01T17:12:25.423Z,99281.16
2019-06-01T17:14:58.782Z,99282.52
2019-06-01T17:17:34.464Z,99281.94
2019-06-01T17:20:07.262Z,99283.00
2019-06-01T17:22:39.927Z,99279.44
2019-06-01T17:25:12.131Z,99282.22
2019-06-01T17:28:01.013Z,99282.95
2019-06-01T17:30:37.753Z,99286.64
2019-06-01T17:33:11.184Z,99286.63
2019-06-01T17:36:02.843Z,99282.16
2019-06-01T17:38:38.579Z,99288.69
2019-06-01T17:41:14.113Z,99284.48
2019-06-01T17:43:50.904Z,99291.95
2019-06-01T17:46:30.072Z,99282.63
2019-06-01T17:49:02.720Z,99287.25
2019-06-01T17:51:36.935Z,99290.89
2019-06-01T17:54:10.509Z,99294.37
2019-06-01T17:56:46.655Z,99294.64
2019-06-01T17:59:22.181Z,99296.12
2019-06-01T18:01:53.689Z,99292.48
2019-06-01T18:04:28.268Z,99296.44
2019-06-01T18:07:01.790Z,99286.38
2019-06-01T18:09:33.935Z,99299.47
2019-06-01T18:12:10.209Z,99297.16
2019-06-01T18:14:43.904Z,99300.05
2019-06-01T18:17:17.623Z,99172.03
2019-06-01T18:19:54.006Z,99281.39
2019-06-01T18:22:28.275Z,99299.60
2019-06-01T18:25:00.711Z,99300.97
2019-06-01T18:27:32.736Z,99304.97
2019-06-01T18:30:06.864Z,99304.92
2019-06-01T18:32:39.964Z,99308.86
2019-06-01T18:35:11.784Z,99303.06
2019-06-01T18:38:00.243Z,99309.50
2019-06-01T18:40:35.657Z,99174.88
2019-06-01T18:43:14.303Z,99315.62
2019-06-01T18:45:53.447Z,99312.02
2019-06-01T18:48:25.808Z,99313.58
2019-06-01T18:50:57.869Z,99308.78
2019-06-01T18:53:31.743Z,99308.99
2019-06-01T18:56:08.158Z,99312.72
2019-06-01T18:58:44.282Z,99318.78
2019-06-01T19:01:21.070Z,99317.09
2019-06-01T19:03:52.892Z,99313.15
2019-06-01T19:06:28.652Z,99321.23
2019-06-01T19:08:59.994Z,99327.48
2019-06-01T19:11:36.224Z,99333.13
2019-06-01T19:14:11.868Z,99330.16
2019-06-01T19:16:49.551Z,99325.61
2019-06-01T19:19:23.933Z,99331.05
2019-06-01T19:21:58.108Z,99335.53
2019-06-01T19:24:32.184Z,99332.66
2019-06-01T19:27:06.580Z,99333.39
2019-06-01T19:29:40.601Z,99334.55
2019-06-01T19:32:19.058Z,99340.03
2019-06-01T19:34:49.986Z,99335.73
2019-06-01T19:37:27.904Z,99336.23
2019-06-01T19:40:00.564Z,99338.41
2019-06-01T19:42:34.974Z,99335.73
2019-06-01T19:45:18.452Z,99334.11
2019-06-01T19:47:46.432Z,99340.77
2019-06-01T19:50:36.087Z,99340.90
2019-06-01T19:53:10.460Z,99173.91
2019-06-01T19:55:48.841Z,99346.55
2019-06-01T19:58:20.264Z,99347.47
2019-06-01T20:01:10.146Z,99343.86
2019-06-01T20:03:47.802Z,99350.11
2019-06-01T20:06:20.316Z,99347.78
2019-06-01T20:08:53.288Z,99354.36
2019-06-01T20:11:30.150Z,99351.91
2019-06-01T20:14:04.623Z,99366.10
2019-06-01T20:16:37.647Z,99362.45
2019-06-01T20:19:11.450Z,99359.39
2019-06-01T20:21:47.436Z,99364.12
2019-06-01T20:24:24.149Z,99372.02
2019-06-01T20:26:58.715Z,99370.77
2019-06-01T20:29:34.555Z,99362.91
2019-06-01T20:32:09.783Z,99361.19
2019-06-01T20:34:51.901Z,99364.48
2019-06-01T20:37:26.376Z,99364.27
2019-06-01T20:39:59.517Z,99364.16
2019-06-01T20:42:33.127Z,99367.06
2019-06-01T20:45:09.149Z,99372.42
2019-06-01T20:47:42.403Z,99370.33
2019-06-01T20:50:38.720Z,99366.00
2019-06-01T20:53:16.965Z,99372.36
2019-06-01T20:56:03.352Z,99371.53
2019-06-01T20:58:35.611Z,99377.95
2019-06-01T21:01:11.841Z,99376.89
2019-06-01T21:03:45.972Z,99366.31
2019-06-01T21:06:18.871Z,99232.16
2019-06-01T21:08:54.225Z,99369.74
2019-06-01T21:11:25.507Z,99382.65
2019-06-01T21:14:01.326Z,99376.43
2019-06-01T21:16:35.637Z,99383.87
2019-06-01T21:19:08.652Z,99377.70
2019-06-01T21:21:39.994Z,99384.12
2019-06-01T21:24:12.138Z,99382.55
2019-06-01T21:26:48.538Z,99384.86
2019-06-01T21:29:23.396Z,99384.23
2019-06-01T21:31:58.349Z,99382.55
2019-06-01T21:34:30.830Z,99385.09
2019-06-01T21:37:04.355Z,99386.55
2019-06-01T21:39:37.741Z,99391.73
2019-06-01T21:42:11.104Z,99387.25
2019-06-01T21:44:44.721Z,99395.28
2019-06-01T21:47:19.774Z,99393.23
2019-06-01T21:49:52.738Z,99387.53
2019-06-01T21:52:26.357Z,99385.20
2019-06-01T21:54:59.685Z,99389.22
2019-06-01T21:57:31.750Z,99390.05
2019-06-01T22:00:07.655Z,99384.13
2019-06-01T22:02:40.695Z,99390.69
2019-06-01T22:05:12.922Z,99384.70
2019-06-01T22:07:57.396Z,99374.79
2019-06-01T22:10:39.347Z,99386.33
2019-06-01T22:13:18.520Z,99382.94
2019-06-01T22:15:52.070Z,99378.16
2019-06-01T22:18:25.905Z,99383.22
2019-06-01T22:20:59.490Z,99382.98
2019-06-01T22:23:31.723Z,99383.19
2019-06-01T22:26:05.390Z,99390.03
2019-06-01T22:28:38.893Z,99389.55
2019-06-01T22:31:14.638Z,99389.78
2019-06-01T22:33:49.162Z,99388.62
2019-06-01T22:36:25.104Z,99391.19
2019-06-01T22:38:56.957Z,99386.45
2019-06-01T22:41:33.526Z,99391.95
2019-06-01T22:44:09.728Z,99394.69
2019-06-01T22:46:42.128Z,99394.52
2019-06-01T22:49:17.735Z,99394.47
2019-06-01T22:51:51.970Z,99387.20
2019-06-01T22:54:25.136Z,99258.10
2019-06-01T22:56:58.061Z,99384.32
2019-06-01T22:59:30.150Z,99383.97
2019-06-01T23:02:02.240Z,99386.45
2019-06-01T23:04:35.207Z,99390.09
2019-06-01T23:07:08.841Z,99387.86
2019-06-01T23:09:42.098Z,99387.70
2019-06-01T23:12:16.058Z,99382.55
2019-06-01T23:14:48.051Z,99386.78
2019-06-01T23:17:21.524Z,99376.84
2019-06-01T23:19:54.151Z,99382.64
2019-06-01T23:22:28.263Z,99382.75
2019-06-01T23:25:00.405Z,99375.59
2019-06-01T23:27:36.077Z,99377.67
2019-06-01T23:30:10.070Z,99374.27
2019-06-01T23:32:42.399Z,99373.40
2019-06-01T23:35:35.211Z,99375.77
2019-06-01T23:38:09.272Z,99372.67
2019-06-01T23:40:48.072Z,99379.14
2019-06-01T23:43:24.721Z,99374.39
2019-06-01T23:46:18.610Z,99381.89
2019-06-01T23:48:50.332Z,99373.34
2019-06-01T23:51:23.497Z,99374.27
2019-06-01T23:53:58.587Z,99366.88
2019-06-01T23:56:34.724Z,99374.27
2019-06-01T23:59:07.249Z,99377.38
